Terminal Aerodrome Forecast
Issued by NWS Binghamton, NY

Home | Current Version | Previous Version | Text Only | Print | Product List | Glossary On
Versions: 1 2 3 4 5 6 7 8 9 10 11 12 13 14 15 16 17 18 19 20 21 22
000
FTUS41 KBGM 291100
TAFAVP
TAF
KAVP 291133Z 2912/3012 VRB04KT P6SM SCT025 BKN070
      TEMPO 2912/2914 BKN015
     FM291500 30006KT P6SM BKN060
     FM300000 11004KT P6SM FEW060=

USA.gov is the U.S. government's official web portal to all federal, state and local government web resources and services.